Time;durP1;ratioP1;P1;durP2;ratioP2;P2;SDS_P1;SDS_P2;PMS_P1;PMS_P2;Temp;Humidity;BMP_temperature;BMP_pressure;BME280_temperature;BME280_humidity;BME280_pressure;Samples;Min_cycle;Max_cycle;Signal;HPM_P1;HPM_P2
2022/11/12 00:00:31;;;;;;;3.40;3.30;;;;;;;;;;4984140;28;20686;-67
2022/11/12 00:02:57;;;;;;;3.00;2.90;;;;;;;;;;4985237;28;20866;-69
2022/11/12 00:05:24;;;;;;;2.90;2.90;;;;;;;;;;4987973;28;20440;-68
2022/11/12 00:07:49;;;;;;;2.50;2.50;;;;;;;;;;4986613;28;20433;-69
2022/11/12 00:10:16;;;;;;;2.63;2.53;;;;;;;;;;4987714;28;20507;-69
2022/11/12 00:12:42;;;;;;;2.90;2.90;;;;;;;;;;4991215;28;20433;-68
2022/11/12 00:15:08;;;;;;;2.50;2.50;;;;;;;;;;4987297;28;20441;-68
2022/11/12 00:17:34;;;;;;;4.63;2.50;;;;;;;;;;4986598;28;20446;-68
2022/11/12 00:20:00;;;;;;;2.00;2.00;;;;;;;;;;4990415;28;21011;-69
2022/11/12 00:22:26;;;;;;;2.43;2.20;;;;;;;;;;4990006;28;20841;-68
2022/11/12 00:24:52;;;;;;;4.63;4.33;;;;;;;;;;4985707;28;20524;-68
2022/11/12 00:27:18;;;;;;;3.33;3.23;;;;;;;;;;4989563;28;20841;-68
2022/11/12 00:29:44;;;;;;;3.53;3.40;;;;;;;;;;4987312;28;20860;-68
2022/11/12 00:32:10;;;;;;;3.93;3.63;;;;;;;;;;4983247;28;20524;-67
2022/11/12 00:34:36;;;;;;;3.53;3.43;;;;;;;;;;4986754;28;20429;-69
2022/11/12 00:37:02;;;;;;;3.30;3.20;;;;;;;;;;4985266;28;20987;-68
2022/11/12 00:39:28;;;;;;;2.97;2.93;;;;;;;;;;4988751;28;20488;-68
2022/11/12 00:41:54;;;;;;;3.30;3.20;;;;;;;;;;4989935;28;20787;-68
2022/11/12 00:44:20;;;;;;;3.13;2.93;;;;;;;;;;4991481;28;20515;-68
2022/11/12 00:46:46;;;;;;;3.63;3.40;;;;;;;;;;4987917;28;20429;-67
2022/11/12 00:49:12;;;;;;;3.20;3.00;;;;;;;;;;4986760;28;20445;-68
2022/11/12 00:51:38;;;;;;;2.90;2.90;;;;;;;;;;4989621;28;20441;-68
2022/11/12 00:54:05;;;;;;;2.83;2.83;;;;;;;;;;4989823;28;20441;-68
2022/11/12 00:56:31;;;;;;;2.57;2.47;;;;;;;;;;4988626;28;20429;-68
2022/11/12 00:58:57;;;;;;;2.53;2.53;;;;;;;;;;4989667;28;20571;-68
2022/11/12 01:01:23;;;;;;;3.07;2.80;;;;;;;;;;4987066;28;20446;-67
2022/11/12 01:03:50;;;;;;;2.40;2.30;;;;;;;;;;4989188;28;20846;-68
2022/11/12 01:06:17;;;;;;;3.40;3.17;;;;;;;;;;4990174;28;20528;-68
2022/11/12 01:08:43;;;;;;;2.33;2.33;;;;;;;;;;4990820;28;20921;-68
2022/11/12 01:11:11;;;;;;;2.33;2.33;;;;;;;;;;4991323;28;20437;-67
2022/11/12 01:13:38;;;;;;;2.03;2.03;;;;;;;;;;4988064;28;20425;-67
2022/11/12 01:16:05;;;;;;;2.17;2.17;;;;;;;;;;4992031;28;20444;-67
2022/11/12 01:18:31;;;;;;;2.63;2.43;;;;;;;;;;4988307;28;20980;-68
2022/11/12 01:21:00;;;;;;;9.23;2.60;;;;;;;;;;4985425;28;20456;-67
2022/11/12 01:23:26;;;;;;;2.83;2.73;;;;;;;;;;4987915;28;20433;-67
2022/11/12 01:25:51;;;;;;;2.43;2.43;;;;;;;;;;4989752;28;20425;-68
2022/11/12 01:28:17;;;;;;;9.20;2.37;;;;;;;;;;4986812;28;20433;-68
2022/11/12 01:30:43;;;;;;;4.20;2.40;;;;;;;;;;4989710;28;20527;-68
2022/11/12 01:33:09;;;;;;;2.00;1.90;;;;;;;;;;4984980;28;20949;-68
2022/11/12 01:35:35;;;;;;;2.43;2.10;;;;;;;;;;4990171;28;20528;-66
2022/11/12 01:38:01;;;;;;;1.93;1.93;;;;;;;;;;4989285;28;20528;-68
2022/11/12 01:40:27;;;;;;;2.67;1.70;;;;;;;;;;4988875;28;20495;-67
2022/11/12 01:42:53;;;;;;;1.30;1.30;;;;;;;;;;4990751;28;20447;-69
2022/11/12 01:45:20;;;;;;;1.47;1.47;;;;;;;;;;4986190;28;20456;-68
2022/11/12 01:47:48;;;;;;;1.50;1.50;;;;;;;;;;4986950;28;20445;-68
2022/11/12 01:50:14;;;;;;;3.10;3.00;;;;;;;;;;4987044;28;20800;-68
2022/11/12 01:52:45;;;;;;;1.57;1.57;;;;;;;;;;4989090;28;20477;-68
2022/11/12 01:55:14;;;;;;;1.63;1.63;;;;;;;;;;4986425;28;20450;-68
2022/11/12 01:57:42;;;;;;;1.63;1.63;;;;;;;;;;4986829;28;20426;-68
2022/11/12 02:00:10;;;;;;;2.03;2.03;;;;;;;;;;4986207;28;20504;-68
2022/11/12 02:02:36;;;;;;;1.33;1.33;;;;;;;;;;4988397;28;20437;-68
2022/11/12 02:05:04;;;;;;;1.47;1.47;;;;;;;;;;4990613;28;20929;-68
2022/11/12 02:07:31;;;;;;;1.83;1.83;;;;;;;;;;4989791;28;20976;-68
2022/11/12 02:09:57;;;;;;;1.63;1.63;;;;;;;;;;4988292;28;20505;-69
2022/11/12 02:15:08;;;;;;;1.40;1.40;;;;;;;;;;4985929;28;20475;-67
2022/11/12 02:17:34;;;;;;;1.87;1.87;;;;;;;;;;4987277;28;20433;-68
2022/11/12 02:20:00;;;;;;;1.67;1.67;;;;;;;;;;4985304;28;20555;-68
2022/11/12 02:22:26;;;;;;;1.20;1.20;;;;;;;;;;4989686;28;20432;-68
2022/11/12 02:24:52;;;;;;;1.87;1.77;;;;;;;;;;4988116;28;20957;-68
2022/11/12 02:27:18;;;;;;;1.53;1.53;;;;;;;;;;4989711;28;20917;-67
2022/11/12 02:29:47;;;;;;;1.80;1.80;;;;;;;;;;4990657;28;20968;-67
2022/11/12 02:32:13;;;;;;;1.80;1.80;;;;;;;;;;4988242;28;20511;-68
2022/11/12 02:34:40;;;;;;;2.30;2.20;;;;;;;;;;4988933;28;20964;-68
2022/11/12 02:37:06;;;;;;;1.80;1.80;;;;;;;;;;4989072;28;20461;-69
2022/11/12 02:39:32;;;;;;;2.13;2.03;;;;;;;;;;4989768;28;20503;-67
2022/11/12 02:41:58;;;;;;;1.90;1.80;;;;;;;;;;4986314;28;20806;-68
2022/11/12 02:44:24;;;;;;;1.57;1.57;;;;;;;;;;4988588;28;20914;-68
2022/11/12 02:46:50;;;;;;;4.77;1.50;;;;;;;;;;4988197;28;20432;-68
2022/11/12 02:49:16;;;;;;;2.30;2.30;;;;;;;;;;4985631;28;21068;-68
2022/11/12 02:51:42;;;;;;;2.00;2.00;;;;;;;;;;4987270;28;20867;-68
2022/11/12 02:54:08;;;;;;;1.80;1.80;;;;;;;;;;4987730;28;20505;-68
2022/11/12 02:56:35;;;;;;;2.27;2.27;;;;;;;;;;4989576;28;20537;-67
2022/11/12 02:59:01;;;;;;;1.60;1.60;;;;;;;;;;4987462;28;20481;-68
2022/11/12 03:01:27;;;;;;;1.83;1.83;;;;;;;;;;4984501;28;20995;-67
2022/11/12 03:03:53;;;;;;;1.50;1.50;;;;;;;;;;4988060;28;20437;-68
2022/11/12 03:06:19;;;;;;;1.40;1.40;;;;;;;;;;4987227;28;20460;-68
2022/11/12 03:08:45;;;;;;;2.47;2.37;;;;;;;;;;4988587;28;20519;-67
2022/11/12 03:11:12;;;;;;;1.90;1.90;;;;;;;;;;4983576;28;20429;-68
2022/11/12 03:13:39;;;;;;;1.80;1.80;;;;;;;;;;4988642;28;20810;-68
2022/11/12 03:16:06;;;;;;;2.00;1.90;;;;;;;;;;4987486;28;20495;-68
2022/11/12 03:18:32;;;;;;;1.87;1.77;;;;;;;;;;4988582;28;20532;-67
2022/11/12 03:20:58;;;;;;;10.63;1.80;;;;;;;;;;4984668;28;20446;-67
2022/11/12 03:23:25;;;;;;;1.60;1.60;;;;;;;;;;4985792;28;20441;-68
2022/11/12 03:25:51;;;;;;;1.83;1.83;;;;;;;;;;4989395;28;20421;-68
2022/11/12 03:28:17;;;;;;;2.07;1.83;;;;;;;;;;4988161;28;20559;-68
2022/11/12 03:30:44;;;;;;;1.87;1.87;;;;;;;;;;4988222;28;20456;-69
2022/11/12 03:33:11;;;;;;;1.67;1.67;;;;;;;;;;4988143;28;20437;-68
2022/11/12 03:35:37;;;;;;;1.57;1.57;;;;;;;;;;4988919;28;20807;-68
2022/11/12 03:38:03;;;;;;;2.13;2.13;;;;;;;;;;4985044;28;20433;-68
2022/11/12 03:40:30;;;;;;;1.67;1.67;;;;;;;;;;4988044;28;20484;-68
2022/11/12 03:42:56;;;;;;;1.50;1.50;;;;;;;;;;4987597;28;20425;-68
2022/11/12 03:45:23;;;;;;;2.10;1.60;;;;;;;;;;4991475;28;20440;-67
2022/11/12 03:47:51;;;;;;;1.67;1.63;;;;;;;;;;4991135;28;20440;-68
2022/11/12 03:50:17;;;;;;;1.90;1.90;;;;;;;;;;4991028;28;20437;-67
2022/11/12 03:52:44;;;;;;;2.00;2.00;;;;;;;;;;4989565;28;20504;-68
2022/11/12 03:55:10;;;;;;;1.30;1.30;;;;;;;;;;4990727;28;20450;-68
2022/11/12 03:57:36;;;;;;;2.03;1.93;;;;;;;;;;4991749;28;20433;-68
2022/11/12 04:00:03;;;;;;;1.70;1.70;;;;;;;;;;4990159;28;20492;-67
2022/11/12 04:02:29;;;;;;;1.80;1.80;;;;;;;;;;4989241;28;20436;-68
2022/11/12 04:10:25;;;;;;;1.60;1.60;;;;;;;;;;4993168;28;20517;-68
2022/11/12 04:15:35;;;;;;;1.87;1.87;;;;;;;;;;4990155;28;20480;-68
2022/11/12 04:23:33;;;;;;;1.67;1.67;;;;;;;;;;4985243;28;20943;-68
2022/11/12 04:30:14;;;;;;;1.67;1.67;;;;;;;;;;4993193;28;21013;-68
2022/11/12 04:31:30;;;;;;;1.80;1.80;;;;;;;;;;4990040;28;20521;-68
2022/11/12 04:34:27;;;;;;;1.70;1.70;;;;;;;;;;4992457;28;21073;-68
2022/11/12 04:36:42;;;;;;;2.73;1.80;;;;;;;;;;4991832;28;20520;-68
2022/11/12 04:39:08;;;;;;;1.90;1.90;;;;;;;;;;4983541;28;21282;-67
2022/11/12 04:47:03;;;;;;;1.80;1.80;;;;;;;;;;4989265;28;20484;-67
2022/11/12 04:49:29;;;;;;;1.70;1.70;;;;;;;;;;4988881;28;20428;-68
2022/11/12 04:52:04;;;;;;;1.30;1.30;;;;;;;;;;4988628;28;20468;-68
2022/11/12 04:54:30;;;;;;;1.77;1.77;;;;;;;;;;4988755;28;20891;-66
2022/11/12 04:56:56;;;;;;;2.00;1.90;;;;;;;;;;4990590;28;20433;-67
2022/11/12 04:59:21;;;;;;;2.43;2.33;;;;;;;;;;4987333;28;20955;-68
2022/11/12 05:01:47;;;;;;;4.27;3.37;;;;;;;;;;4990112;28;20572;-68
2022/11/12 05:04:13;;;;;;;16.37;9.60;;;;;;;;;;4991200;28;20479;-68
2022/11/12 05:06:52;;;;;;;4.50;4.20;;;;;;;;;;4991894;28;20956;-67
2022/11/12 05:09:22;;;;;;;4.80;2.93;;;;;;;;;;4986600;28;20508;-68
2022/11/12 05:11:48;;;;;;;4.70;4.53;;;;;;;;;;4989618;28;20489;-68
2022/11/12 05:14:14;;;;;;;4.93;4.53;;;;;;;;;;4990438;28;20437;-67
2022/11/12 05:16:40;;;;;;;3.70;3.37;;;;;;;;;;4990371;28;20479;-68
2022/11/12 05:19:06;;;;;;;3.60;3.50;;;;;;;;;;4990053;28;20472;-68
2022/11/12 05:24:17;;;;;;;3.03;2.93;;;;;;;;;;4991202;28;20475;-67
2022/11/12 05:26:43;;;;;;;2.20;2.10;;;;;;;;;;4990316;28;20700;-68
2022/11/12 05:29:09;;;;;;;2.63;2.60;;;;;;;;;;4989477;28;20953;-68
2022/11/12 05:31:35;;;;;;;2.70;2.50;;;;;;;;;;4990826;28;20433;-67
2022/11/12 05:34:01;;;;;;;2.50;2.40;;;;;;;;;;4990596;28;21025;-68
2022/11/12 05:36:26;;;;;;;2.37;2.27;;;;;;;;;;4988702;28;20433;-68
2022/11/12 05:38:52;;;;;;;3.10;3.00;;;;;;;;;;4990265;28;20469;-68
2022/11/12 05:41:19;;;;;;;2.07;2.07;;;;;;;;;;4991556;28;20441;-67
2022/11/12 05:43:45;;;;;;;2.80;2.70;;;;;;;;;;4987736;28;20425;-69
2022/11/12 05:46:11;;;;;;;2.27;2.27;;;;;;;;;;4989600;28;20433;-68
2022/11/12 05:48:37;;;;;;;2.20;2.20;;;;;;;;;;4988402;28;20444;-68
2022/11/12 05:51:03;;;;;;;1.90;1.90;;;;;;;;;;4989308;28;20836;-68
2022/11/12 05:53:29;;;;;;;2.23;2.17;;;;;;;;;;4987101;28;20535;-68
2022/11/12 05:56:01;;;;;;;1.90;1.90;;;;;;;;;;4988619;28;20473;-68
2022/11/12 05:58:27;;;;;;;2.47;2.40;;;;;;;;;;4990537;28;20778;-68
2022/11/12 06:00:52;;;;;;;1.93;1.93;;;;;;;;;;4981518;28;20445;-67
2022/11/12 06:03:19;;;;;;;2.53;2.43;;;;;;;;;;4990575;28;20418;-68
2022/11/12 06:05:45;;;;;;;3.20;3.10;;;;;;;;;;4989155;28;20447;-68
2022/11/12 06:08:11;;;;;;;4.67;3.00;;;;;;;;;;4988304;28;20508;-68
2022/11/12 06:10:37;;;;;;;3.53;3.37;;;;;;;;;;4989014;28;20449;-68
2022/11/12 06:13:03;;;;;;;5.30;2.83;;;;;;;;;;4984519;28;20438;-68
2022/11/12 06:15:29;;;;;;;2.70;2.57;;;;;;;;;;4986008;28;20527;-68
2022/11/12 06:17:55;;;;;;;2.80;2.70;;;;;;;;;;4985885;28;20993;-72
2022/11/12 06:20:21;;;;;;;2.80;2.70;;;;;;;;;;4988094;28;20488;-67
2022/11/12 06:22:48;;;;;;;2.40;2.30;;;;;;;;;;4990546;28;20421;-67
2022/11/12 06:25:14;;;;;;;3.10;2.87;;;;;;;;;;4990282;28;20425;-67
2022/11/12 06:27:40;;;;;;;2.90;2.70;;;;;;;;;;4989334;28;20429;-67
2022/11/12 06:30:07;;;;;;;2.57;2.57;;;;;;;;;;4988628;28;20426;-67
2022/11/12 06:32:33;;;;;;;2.67;2.57;;;;;;;;;;4989527;28;20425;-67
2022/11/12 06:34:59;;;;;;;2.40;2.20;;;;;;;;;;4990339;28;20484;-66
2022/11/12 06:37:25;;;;;;;2.23;2.23;;;;;;;;;;4989317;28;20428;-67
2022/11/12 06:39:51;;;;;;;2.40;2.30;;;;;;;;;;4987628;28;20485;-67
2022/11/12 06:42:17;;;;;;;3.87;2.40;;;;;;;;;;4987626;28;20512;-68
2022/11/12 06:44:43;;;;;;;2.20;2.20;;;;;;;;;;4990495;28;20429;-68
2022/11/12 06:47:09;;;;;;;2.23;2.20;;;;;;;;;;4989328;28;20472;-67
2022/11/12 06:49:35;;;;;;;2.90;2.80;;;;;;;;;;4990593;28;20425;-67
2022/11/12 06:52:02;;;;;;;2.80;2.70;;;;;;;;;;4985560;28;20483;-67
2022/11/12 06:54:27;;;;;;;2.40;2.40;;;;;;;;;;4989579;28;20433;-67
2022/11/12 06:56:53;;;;;;;2.50;2.50;;;;;;;;;;4988974;28;20441;-67
2022/11/12 06:59:19;;;;;;;2.60;2.50;;;;;;;;;;4988349;28;20572;-68
2022/11/12 07:01:45;;;;;;;2.17;2.17;;;;;;;;;;4988721;28;21133;-67
2022/11/12 07:04:11;;;;;;;2.97;2.87;;;;;;;;;;4985645;28;20520;-67
2022/11/12 07:06:37;;;;;;;3.67;3.47;;;;;;;;;;4985061;28;20448;-67
2022/11/12 07:09:04;;;;;;;5.90;5.50;;;;;;;;;;4986819;28;20429;-67
2022/11/12 07:11:30;;;;;;;2.70;2.60;;;;;;;;;;4988174;28;20469;-67
2022/11/12 07:13:56;;;;;;;2.80;2.70;;;;;;;;;;4988684;28;20425;-67
2022/11/12 07:16:23;;;;;;;7.73;7.13;;;;;;;;;;4988767;28;20430;-67
2022/11/12 07:18:49;;;;;;;4.60;4.30;;;;;;;;;;4984622;28;20480;-67
2022/11/12 07:21:16;;;;;;;2.30;2.20;;;;;;;;;;4987943;28;20510;-67
2022/11/12 07:23:42;;;;;;;3.83;3.47;;;;;;;;;;4988818;28;20487;-67
2022/11/12 07:26:19;;;;;;;2.87;2.87;;;;;;;;;;4988855;28;20445;-67
2022/11/12 07:28:46;;;;;;;1.87;1.87;;;;;;;;;;4988230;28;20422;-67
2022/11/12 07:31:13;;;;;;;2.63;2.53;;;;;;;;;;4980372;28;21007;-67
2022/11/12 07:33:40;;;;;;;2.77;2.67;;;;;;;;;;4985055;28;21638;-67
2022/11/12 07:36:07;;;;;;;4.67;3.40;;;;;;;;;;4986456;28;20975;-67
2022/11/12 07:38:34;;;;;;;2.90;2.90;;;;;;;;;;4981493;28;20514;-67
2022/11/12 07:41:00;;;;;;;3.10;2.87;;;;;;;;;;4987985;28;21019;-68
2022/11/12 07:43:26;;;;;;;3.10;2.90;;;;;;;;;;4987351;28;20528;-67
2022/11/12 07:45:52;;;;;;;3.50;3.10;;;;;;;;;;4976933;28;20520;-66
2022/11/12 07:48:18;;;;;;;3.40;3.30;;;;;;;;;;4980032;28;20417;-67
2022/11/12 07:50:44;;;;;;;5.30;3.97;;;;;;;;;;4987166;28;20771;-67
2022/11/12 07:53:10;;;;;;;3.77;3.67;;;;;;;;;;4982727;28;20476;-67
2022/11/12 07:55:36;;;;;;;3.80;3.60;;;;;;;;;;4978639;28;20530;-67
2022/11/12 07:58:02;;;;;;;3.10;2.90;;;;;;;;;;4991601;28;20968;-66
2022/11/12 08:00:28;;;;;;;2.60;2.50;;;;;;;;;;4990875;28;20476;-67
2022/11/12 08:02:54;;;;;;;2.70;2.60;;;;;;;;;;4991431;28;20530;-67
2022/11/12 08:05:20;;;;;;;3.03;2.83;;;;;;;;;;4991090;28;20460;-67
2022/11/12 08:07:46;;;;;;;2.67;2.67;;;;;;;;;;4990420;28;20911;-67
2022/11/12 08:10:12;;;;;;;3.13;3.03;;;;;;;;;;4986293;28;20480;-67
2022/11/12 08:12:38;;;;;;;4.10;3.90;;;;;;;;;;4987049;28;20440;-67
2022/11/12 08:15:04;;;;;;;2.90;2.80;;;;;;;;;;4984537;28;20937;-67
2022/11/12 08:17:31;;;;;;;2.87;2.77;;;;;;;;;;4984019;28;20570;-67
2022/11/12 08:19:57;;;;;;;4.00;3.80;;;;;;;;;;4989097;28;20488;-66
2022/11/12 08:22:23;;;;;;;4.73;4.30;;;;;;;;;;4982816;28;20447;-67
2022/11/12 08:24:49;;;;;;;4.13;3.73;;;;;;;;;;4984180;28;20460;-67
2022/11/12 08:27:15;;;;;;;5.60;5.20;;;;;;;;;;4991275;28;20918;-67
2022/11/12 08:29:41;;;;;;;3.97;3.77;;;;;;;;;;4990476;28;20436;-67
2022/11/12 08:32:07;;;;;;;4.63;4.43;;;;;;;;;;4990494;28;20460;-67
2022/11/12 08:34:34;;;;;;;5.23;4.83;;;;;;;;;;4990802;28;20433;-66
2022/11/12 08:37:00;;;;;;;4.13;3.83;;;;;;;;;;4989286;28;20440;-66
2022/11/12 08:39:26;;;;;;;5.10;4.70;;;;;;;;;;4991284;28;20484;-67
2022/11/12 08:41:52;;;;;;;4.10;3.87;;;;;;;;;;4991029;28;20491;-67
2022/11/12 08:44:18;;;;;;;4.87;3.90;;;;;;;;;;4988491;28;20433;-68
2022/11/12 08:46:44;;;;;;;3.53;3.43;;;;;;;;;;4980367;28;20428;-67
2022/11/12 08:49:10;;;;;;;4.20;4.00;;;;;;;;;;4992518;28;20920;-68
2022/11/12 08:51:36;;;;;;;5.13;4.80;;;;;;;;;;4990783;28;20433;-67
2022/11/12 08:54:02;;;;;;;5.03;4.70;;;;;;;;;;4990385;28;20433;-67
2022/11/12 08:56:28;;;;;;;5.50;4.93;;;;;;;;;;4989936;28;21765;-67
2022/11/12 08:58:54;;;;;;;4.83;4.53;;;;;;;;;;4992473;28;20543;-67
2022/11/12 09:01:20;;;;;;;7.03;4.33;;;;;;;;;;4989028;28;20455;-67
2022/11/12 09:03:48;;;;;;;4.40;4.10;;;;;;;;;;4989892;28;20448;-68
2022/11/12 09:06:14;;;;;;;6.35;5.85;;;;;;;;;;4988026;28;20444;-67
2022/11/12 09:08:40;;;;;;;5.80;5.40;;;;;;;;;;4987601;28;20187;-67
2022/11/12 09:11:06;;;;;;;6.30;5.70;;;;;;;;;;4992384;28;20863;-67
2022/11/12 09:13:33;;;;;;;5.77;5.30;;;;;;;;;;4991898;28;20444;-67
2022/11/12 09:16:00;;;;;;;7.00;6.30;;;;;;;;;;4991835;28;20437;-68
2022/11/12 09:18:26;;;;;;;7.77;6.27;;;;;;;;;;4988426;28;20432;-67
2022/11/12 09:20:52;;;;;;;10.93;7.37;;;;;;;;;;4992228;28;20507;-67
2022/11/12 09:23:18;;;;;;;8.40;7.33;;;;;;;;;;4986311;28;20925;-67
2022/11/12 09:25:44;;;;;;;7.87;6.87;;;;;;;;;;4990251;28;20825;-67
2022/11/12 09:28:15;;;;;;;5.63;5.00;;;;;;;;;;4987138;28;20421;-67
2022/11/12 09:30:42;;;;;;;6.20;5.70;;;;;;;;;;4988567;28;20460;-67
2022/11/12 09:33:09;;;;;;;7.20;5.60;;;;;;;;;;4990899;28;20917;-67
2022/11/12 09:35:35;;;;;;;9.17;6.83;;;;;;;;;;4985187;28;20442;-67
2022/11/12 09:38:01;;;;;;;7.57;6.33;;;;;;;;;;4988736;28;20443;-67
2022/11/12 09:40:47;;;;;;;7.00;5.97;;;;;;;;;;4988682;28;20521;-67
2022/11/12 09:43:30;;;;;;;22.33;6.40;;;;;;;;;;4989888;28;20436;-67
2022/11/12 09:45:57;;;;;;;7.80;6.60;;;;;;;;;;4984923;28;20445;-67
2022/11/12 09:48:25;;;;;;;11.27;6.93;;;;;;;;;;4986390;28;20429;-67
2022/11/12 09:50:59;;;;;;;7.53;6.70;;;;;;;;;;4984443;28;20425;-67
2022/11/12 09:53:34;;;;;;;8.73;7.77;;;;;;;;;;4984196;28;20479;-67
2022/11/12 09:56:01;;;;;;;8.40;6.53;;;;;;;;;;4985799;28;20439;-67
2022/11/12 09:58:27;;;;;;;8.93;7.90;;;;;;;;;;4988889;28;20961;-67
2022/11/12 10:00:58;;;;;;;8.57;7.50;;;;;;;;;;4987894;28;20495;-67
2022/11/12 10:03:33;;;;;;;7.40;6.73;;;;;;;;;;4988930;28;20829;-67
2022/11/12 10:06:11;;;;;;;14.03;7.70;;;;;;;;;;4990012;28;20511;-67
2022/11/12 10:08:43;;;;;;;11.93;9.20;;;;;;;;;;4986443;28;20441;-67
2022/11/12 10:11:27;;;;;;;9.13;8.10;;;;;;;;;;4988941;28;20432;-67
2022/11/12 10:14:29;;;;;;;13.20;9.53;;;;;;;;;;4988553;28;20429;-68
2022/11/12 10:17:04;;;;;;;16.23;10.10;;;;;;;;;;5011252;28;20418;-67
2022/11/12 10:19:29;;;;;;;12.20;7.90;;;;;;;;;;4993200;28;20476;-75
2022/11/12 10:21:55;;;;;;;9.20;8.13;;;;;;;;;;4986852;28;20440;-68
2022/11/12 10:24:23;;;;;;;9.43;8.40;;;;;;;;;;4988307;28;20424;-67
2022/11/12 10:26:49;;;;;;;10.87;8.97;;;;;;;;;;4990538;28;20428;-68
2022/11/12 10:29:24;;;;;;;15.83;9.70;;;;;;;;;;4989022;28;20520;-68
2022/11/12 10:31:50;;;;;;;13.07;7.90;;;;;;;;;;4986488;28;20436;-68
2022/11/12 10:34:18;;;;;;;10.83;9.10;;;;;;;;;;4989805;28;20452;-68
2022/11/12 10:36:52;;;;;;;14.23;8.90;;;;;;;;;;4990434;28;20425;-67
2022/11/12 10:39:51;;;;;;;15.60;9.50;;;;;;;;;;4988589;28;21007;-68
2022/11/12 10:42:17;;;;;;;18.37;10.53;;;;;;;;;;5007397;28;20495;-67
2022/11/12 10:44:44;;;;;;;15.70;10.70;;;;;;;;;;4988592;28;20441;-68
2022/11/12 10:47:45;;;;;;;24.33;11.33;;;;;;;;;;4985768;28;20472;-67
2022/11/12 10:50:17;;;;;;;20.47;11.57;;;;;;;;;;5024953;28;20442;-68
2022/11/12 10:52:54;;;;;;;23.57;13.00;;;;;;;;;;4990274;28;20872;-68
2022/11/12 10:55:23;;;;;;;25.77;11.03;;;;;;;;;;4982687;28;20448;-67
2022/11/12 10:58:08;;;;;;;22.60;13.90;;;;;;;;;;4988126;28;20941;-68
2022/11/12 11:00:34;;;;;;;19.63;11.10;;;;;;;;;;4985508;28;20504;-69
2022/11/12 11:03:02;;;;;;;25.20;13.07;;;;;;;;;;4986664;28;20434;-68
2022/11/12 11:05:35;;;;;;;21.87;13.80;;;;;;;;;;4988329;28;20837;-68
2022/11/12 11:08:02;;;;;;;22.73;12.87;;;;;;;;;;4989888;28;20503;-68
2022/11/12 11:10:33;;;;;;;25.43;16.10;;;;;;;;;;4984062;28;20460;-69
2022/11/12 11:13:09;;;;;;;20.20;13.53;;;;;;;;;;4986437;28;20433;-69
2022/11/12 11:15:35;;;;;;;25.63;13.47;;;;;;;;;;4974260;28;20445;-68
2022/11/12 11:18:01;;;;;;;25.80;16.10;;;;;;;;;;4980403;28;20450;-68
2022/11/12 11:20:47;;;;;;;22.73;15.50;;;;;;;;;;4983491;28;20488;-68
2022/11/12 11:23:13;;;;;;;23.10;13.30;;;;;;;;;;4981876;28;20425;-68
2022/11/12 11:25:42;;;;;;;25.63;14.50;;;;;;;;;;4979002;28;21077;-68
2022/11/12 11:28:32;;;;;;;28.30;19.10;;;;;;;;;;4982722;28;20429;-69
2022/11/12 11:31:19;;;;;;;27.20;14.87;;;;;;;;;;4985132;28;20944;-68
2022/11/12 11:33:45;;;;;;;31.07;13.67;;;;;;;;;;4986538;28;20472;-68
2022/11/12 11:36:20;;;;;;;27.70;17.50;;;;;;;;;;4987512;28;20464;-68
2022/11/12 11:39:01;;;;;;;22.20;14.20;;;;;;;;;;4987424;28;20420;-68
2022/11/12 11:42:06;;;;;;;16.47;12.40;;;;;;;;;;4987865;28;20511;-67
2022/11/12 11:44:38;;;;;;;25.47;15.67;;;;;;;;;;5010486;28;20539;-67
2022/11/12 11:47:16;;;;;;;24.43;14.90;;;;;;;;;;5018778;28;20435;-68
2022/11/12 11:49:57;;;;;;;31.40;17.47;;;;;;;;;;4998474;28;20446;-68
2022/11/12 11:52:56;;;;;;;22.93;15.57;;;;;;;;;;4982887;28;20484;-69
2022/11/12 11:55:32;;;;;;;34.97;16.10;;;;;;;;;;5005803;28;20433;-68
2022/11/12 11:58:05;;;;;;;26.97;15.17;;;;;;;;;;4987030;28;20548;-67
2022/11/12 12:00:37;;;;;;;33.13;17.60;;;;;;;;;;4987828;28;20492;-68
2022/11/12 12:03:03;;;;;;;21.33;13.73;;;;;;;;;;4983972;28;20429;-68
2022/11/12 12:05:40;;;;;;;22.67;13.77;;;;;;;;;;4988682;28;20437;-68
2022/11/12 12:08:08;;;;;;;16.40;10.90;;;;;;;;;;4990511;28;20436;-68
2022/11/12 12:10:37;;;;;;;25.90;13.10;;;;;;;;;;4991606;28;20468;-69
2022/11/12 12:13:24;;;;;;;19.50;12.20;;;;;;;;;;4986990;28;20433;-67
2022/11/12 12:16:00;;;;;;;24.20;13.43;;;;;;;;;;4990721;28;20667;-68
2022/11/12 12:18:26;;;;;;;19.87;12.27;;;;;;;;;;4988010;28;21584;-68
2022/11/12 12:20:55;;;;;;;15.37;11.47;;;;;;;;;;4989065;28;20488;-67
2022/11/12 12:23:41;;;;;;;20.90;12.10;;;;;;;;;;4991151;28;20437;-69
2022/11/12 12:26:12;;;;;;;22.23;15.40;;;;;;;;;;4989796;28;20444;-67
2022/11/12 12:29:07;;;;;;;18.67;12.57;;;;;;;;;;4989075;28;20432;-68
2022/11/12 12:31:38;;;;;;;15.47;11.03;;;;;;;;;;4991950;28;20455;-68
2022/11/12 12:34:06;;;;;;;18.40;11.50;;;;;;;;;;4989583;28;20516;-68
2022/11/12 12:36:36;;;;;;;20.40;12.50;;;;;;;;;;4985699;28;20459;-68
2022/11/12 12:39:13;;;;;;;20.17;12.83;;;;;;;;;;4984494;28;20508;-68
2022/11/12 12:41:39;;;;;;;16.23;10.40;;;;;;;;;;4988951;28;20448;-67
2022/11/12 12:44:08;;;;;;;17.43;10.90;;;;;;;;;;4986163;28;22397;-67
2022/11/12 12:46:44;;;;;;;15.93;10.83;;;;;;;;;;4980765;28;20533;-67
2022/11/12 12:49:13;;;;;;;20.53;10.23;;;;;;;;;;4982744;28;20432;-66
2022/11/12 12:51:39;;;;;;;18.60;10.00;;;;;;;;;;4985627;28;20441;-67
2022/11/12 12:54:25;;;;;;;22.30;11.90;;;;;;;;;;4988250;28;20555;-68
2022/11/12 12:56:51;;;;;;;13.90;10.57;;;;;;;;;;4988080;28;20448;-67
2022/11/12 12:59:18;;;;;;;13.17;9.13;;;;;;;;;;4989242;28;20488;-68
2022/11/12 13:01:52;;;;;;;16.00;9.77;;;;;;;;;;4986364;28;20491;-68
2022/11/12 13:04:38;;;;;;;13.67;9.47;;;;;;;;;;4984643;28;20569;-68
2022/11/12 13:07:04;;;;;;;14.20;9.83;;;;;;;;;;4985990;28;20433;-67
2022/11/12 13:09:32;;;;;;;10.87;9.80;;;;;;;;;;4987022;28;20441;-68
2022/11/12 13:14:35;;;;;;;14.20;10.60;;;;;;;;;;4991216;28;20418;-69
2022/11/12 13:17:04;;;;;;;17.33;12.57;;;;;;;;;;4988526;28;20437;-68
2022/11/12 13:19:35;;;;;;;12.17;10.17;;;;;;;;;;4988121;28;20479;-68
2022/11/12 13:22:16;;;;;;;15.33;11.30;;;;;;;;;;4988982;28;20437;-68
2022/11/12 13:25:01;;;;;;;16.90;11.07;;;;;;;;;;4991118;28;20436;-68
2022/11/12 13:27:42;;;;;;;15.33;10.30;;;;;;;;;;4991677;28;20492;-69
2022/11/12 13:30:09;;;;;;;15.70;11.90;;;;;;;;;;4990107;28;20440;-68
2022/11/12 13:32:47;;;;;;;17.13;11.70;;;;;;;;;;4990481;28;20420;-67
2022/11/12 13:35:16;;;;;;;17.47;11.40;;;;;;;;;;4989903;28;20444;-68
2022/11/12 13:37:43;;;;;;;12.83;10.60;;;;;;;;;;4990284;28;20433;-68
2022/11/12 13:40:11;;;;;;;18.27;12.60;;;;;;;;;;4989841;28;20485;-68
2022/11/12 13:42:55;;;;;;;18.67;12.60;;;;;;;;;;4991711;28;20942;-68
2022/11/12 13:45:23;;;;;;;16.40;11.67;;;;;;;;;;4987434;28;20437;-69
2022/11/12 13:47:49;;;;;;;21.70;12.90;;;;;;;;;;4991498;28;20922;-69
2022/11/12 13:50:17;;;;;;;23.53;14.07;;;;;;;;;;4990974;28;20440;-68
2022/11/12 13:52:43;;;;;;;20.50;12.60;;;;;;;;;;4990991;28;20473;-68
2022/11/12 13:55:13;;;;;;;23.83;14.57;;;;;;;;;;4990434;28;20443;-69
2022/11/12 13:57:39;;;;;;;21.70;13.43;;;;;;;;;;4989154;28;21081;-69
2022/11/12 14:00:08;;;;;;;25.40;12.70;;;;;;;;;;4987131;28;20484;-69
2022/11/12 14:02:35;;;;;;;24.80;13.27;;;;;;;;;;4991442;28;20460;-68
2022/11/12 14:05:01;;;;;;;12.87;9.37;;;;;;;;;;4990643;28;21001;-68
2022/11/12 14:07:40;;;;;;;25.50;14.37;;;;;;;;;;4990968;28;20509;-68
2022/11/12 14:10:15;;;;;;;29.00;15.87;;;;;;;;;;4991124;28;20427;-68
2022/11/12 14:12:51;;;;;;;27.90;15.60;;;;;;;;;;4991180;28;20832;-68
2022/11/12 14:15:32;;;;;;;23.37;16.40;;;;;;;;;;4987814;28;20457;-68
2022/11/12 14:18:04;;;;;;;25.50;16.20;;;;;;;;;;4990001;28;20544;-69
2022/11/12 14:20:41;;;;;;;29.57;17.70;;;;;;;;;;4990837;28;20480;-68
2022/11/12 14:23:16;;;;;;;32.60;17.73;;;;;;;;;;4990439;28;20425;-68
2022/11/12 14:25:48;;;;;;;29.40;16.47;;;;;;;;;;4990549;28;20425;-68
2022/11/12 14:28:25;;;;;;;32.77;17.47;;;;;;;;;;4990228;28;20432;-68
2022/11/12 14:30:51;;;;;;;35.57;19.90;;;;;;;;;;4988833;28;20793;-68
2022/11/12 14:33:18;;;;;;;30.37;17.23;;;;;;;;;;4989313;28;20520;-67
2022/11/12 14:35:44;;;;;;;30.70;18.53;;;;;;;;;;4990534;28;20425;-68
2022/11/12 14:38:17;;;;;;;27.70;18.47;;;;;;;;;;4990290;28;20437;-69
2022/11/12 14:41:03;;;;;;;26.60;16.77;;;;;;;;;;4990563;28;20487;-68
2022/11/12 14:43:32;;;;;;;26.43;16.83;;;;;;;;;;4990334;28;20420;-69
2022/11/12 14:45:59;;;;;;;27.77;15.77;;;;;;;;;;4987252;28;20445;-68
2022/11/12 14:48:25;;;;;;;31.30;17.27;;;;;;;;;;4989863;28;20437;-69
2022/11/12 14:50:55;;;;;;;29.70;16.90;;;;;;;;;;4984515;28;20584;-69
2022/11/12 14:53:41;;;;;;;29.13;16.60;;;;;;;;;;4985953;28;20476;-75
2022/11/12 14:56:12;;;;;;;24.90;15.30;;;;;;;;;;4982459;28;20438;-68
2022/11/12 14:58:39;;;;;;;26.20;15.77;;;;;;;;;;4989345;28;20941;-67
2022/11/12 15:01:18;;;;;;;24.83;15.87;;;;;;;;;;4988073;28;20491;-67
2022/11/12 15:03:44;;;;;;;29.80;16.20;;;;;;;;;;4989970;28;20432;-68
2022/11/12 15:06:11;;;;;;;24.33;15.33;;;;;;;;;;4983072;28;20445;-68
2022/11/12 15:08:37;;;;;;;30.67;15.53;;;;;;;;;;4986446;28;20953;-69
2022/11/12 15:11:19;;;;;;;28.47;16.43;;;;;;;;;;4986564;28;20437;-68
2022/11/12 15:13:45;;;;;;;29.27;17.30;;;;;;;;;;4989282;28;20433;-69
2022/11/12 15:16:16;;;;;;;29.00;17.20;;;;;;;;;;4986207;28;20937;-69